Time;durP1;ratioP1;P1;durP2;ratioP2;P2;SDS_P1;SDS_P2;PMS_P1;PMS_P2;Temp;Humidity;BMP_temperature;BMP_pressure;BME280_temperature;BME280_humidity;BME280_pressure;Samples;Min_cycle;Max_cycle;Signal;HPM_P1;HPM_P2
2022/04/10 00:01:54;;;;;;;3.22;2.47;;;;;;;;;;5042189;28;20032;-65
2022/04/10 00:04:20;;;;;;;14.15;4.55;;;;;;;;;;5043905;28;21141;-65
2022/04/10 00:06:46;;;;;;;7.55;2.92;;;;;;;;;;5042376;28;20025;-64
2022/04/10 00:09:13;;;;;;;3.05;1.40;;;;;;;;;;5043573;28;20426;-67
2022/04/10 00:11:39;;;;;;;3.85;1.20;;;;;;;;;;5042545;28;20528;-65
2022/04/10 00:14:05;;;;;;;1.75;1.45;;;;;;;;;;5041163;28;20032;-65
2022/04/10 00:16:31;;;;;;;2.95;1.70;;;;;;;;;;5042874;28;20021;-67
2022/04/10 00:19:04;;;;;;;7.65;2.00;;;;;;;;;;5042494;28;20017;-66
2022/04/10 00:21:30;;;;;;;2.13;1.45;;;;;;;;;;5042637;28;20071;-65
2022/04/10 00:23:56;;;;;;;4.03;2.35;;;;;;;;;;5043636;28;20099;-68
2022/04/10 00:26:22;;;;;;;4.18;3.05;;;3.20;97.20;;;;;;5043363;28;20087;-66
2022/04/10 00:28:48;;;;;;;1.60;1.15;;;;;;;;;;5044003;28;20021;-66
2022/04/10 00:31:13;;;;;;;4.38;2.05;;;3.20;98.80;;;;;;5045753;28;20402;-67
2022/04/10 00:33:39;;;;;;;4.03;1.75;;;;;;;;;;5045318;28;20028;-66
2022/04/10 00:36:06;;;;;;;4.72;2.20;;;;;;;;;;5046888;28;20508;-67
2022/04/10 00:38:32;;;;;;;6.05;2.25;;;;;;;;;;5044421;28;20502;-67
2022/04/10 00:40:58;;;;;;;5.50;3.25;;;;;;;;;;5044791;28;20116;-66
2022/04/10 00:43:30;;;;;;;2.72;2.30;;;;;;;;;;5045647;28;20108;-67
2022/04/10 00:45:57;;;;;;;2.45;1.90;;;3.10;99.90;;;;;;5046257;28;20036;-67
2022/04/10 00:48:24;;;;;;;2.97;1.95;;;;;;;;;;5045363;28;20033;-65
2022/04/10 00:53:35;;;;;;;5.72;1.55;;;;;;;;;;5045256;28;20039;-68
2022/04/10 00:56:01;;;;;;;1.48;1.00;;;;;;;;;;5046612;28;20033;-64
2022/04/10 00:58:27;;;;;;;7.80;2.13;;;;;;;;;;5046878;28;20029;-65
2022/04/10 01:00:54;;;;;;;21.45;1.67;;;;;;;;;;5045859;28;20090;-66
2022/04/10 01:03:19;;;;;;;4.75;1.45;;;;;;;;;;5046241;28;20092;-64
2022/04/10 01:05:47;;;;;;;4.30;1.90;;;;;;;;;;5059680;28;20025;-65
2022/04/10 01:08:13;;;;;;;1.33;1.23;;;;;;;;;;5043895;28;20031;-65
2022/04/10 01:10:39;;;;;;;3.33;1.83;;;;;;;;;;5045712;28;20033;-64
2022/04/10 01:13:05;;;;;;;1.60;1.50;;;;;;;;;;5045391;28;20069;-66
2022/04/10 01:15:31;;;;;;;4.72;1.92;;;;;;;;;;5044682;28;20025;-66
2022/04/10 01:17:57;;;;;;;3.45;1.15;;;;;;;;;;5046659;28;20040;-65
2022/04/10 01:20:24;;;;;;;1.95;1.17;;;;;;;;;;5044757;28;20032;-66
2022/04/10 01:22:50;;;;;;;13.15;1.25;;;;;;;;;;5044145;28;20020;-65
2022/04/10 01:25:16;;;;;;;3.83;1.35;;;;;;;;;;5044973;28;20055;-65
2022/04/10 01:27:43;;;;;;;1.67;1.40;;;;;;;;;;5044041;28;20040;-66
2022/04/10 01:30:11;;;;;;;2.60;1.38;;;2.70;94.60;;;;;;5045400;28;20032;-67
2022/04/10 01:32:37;;;;;;;2.53;1.85;;;;;;;;;;5043287;28;20118;-66
2022/04/10 01:35:04;;;;;;;4.10;1.52;;;;;;;;;;5059158;28;20044;-65
2022/04/10 01:37:31;;;;;;;1.80;1.70;;;;;;;;;;5045041;28;20024;-66
2022/04/10 01:39:57;;;;;;;1.67;1.50;;;;;;;;;;5045359;28;20037;-66
2022/04/10 01:42:23;;;;;;;1.10;0.95;;;;;;;;;;5044914;28;20029;-64
2022/04/10 01:44:49;;;;;;;2.83;1.88;;;;;;;;;;5045016;28;20032;-67
2022/04/10 01:47:15;;;;;;;14.57;3.47;;;;;;;;;;5044534;28;20426;-67
2022/04/10 01:49:41;;;;;;;3.03;2.08;;;;;;;;;;5059321;28;20029;-68
2022/04/10 01:52:07;;;;;;;3.45;1.63;;;;;;;;;;5044928;28;20048;-68
2022/04/10 01:54:33;;;;;;;4.40;1.65;;;;;;;;;;5045139;28;20053;-65
2022/04/10 01:56:59;;;;;;;3.15;1.60;;;;;;;;;;5045044;28;20040;-65
2022/04/10 01:59:27;;;;;;;1.80;1.70;;;;;;;;;;5043273;28;20034;-66
2022/04/10 02:01:53;;;;;;;3.08;2.13;;;;;;;;;;5044945;28;20036;-67
2022/04/10 02:04:20;;;;;;;6.70;2.00;;;;;;;;;;5044302;28;20025;-65
2022/04/10 02:06:46;;;;;;;2.03;1.35;;;;;;;;;;5044633;28;20537;-66
2022/04/10 02:09:12;;;;;;;1.35;1.17;;;;;;;;;;5044723;28;20128;-65
2022/04/10 02:11:38;;;;;;;1.35;0.82;;;2.40;99.90;;;;;;5037514;28;20094;-65
2022/04/10 02:14:04;;;;;;;3.83;1.85;;;;;;;;;;5037063;28;20037;-66
2022/04/10 02:16:30;;;;;;;2.42;1.27;;;2.40;97.30;;;;;;5044814;28;20056;-65
2022/04/10 02:18:56;;;;;;;0.75;0.75;;;;;;;;;;5046488;28;20401;-65
2022/04/10 02:21:22;;;;;;;1.98;1.77;;;;;;;;;;5046492;28;20033;-66
2022/04/10 02:23:48;;;;;;;1.30;1.10;;;;;;;;;;5041751;28;20029;-66
2022/04/10 02:26:14;;;;;;;1.58;1.42;;;;;;;;;;5043462;28;20040;-65
2022/04/10 02:28:40;;;;;;;4.57;2.03;;;;;;;;;;5043637;28;20041;-66
2022/04/10 02:31:07;;;;;;;2.20;2.00;;;;;;;;;;5059288;28;20029;-63
2022/04/10 02:33:33;;;;;;;1.90;1.42;;;;;;;;;;5044208;28;20094;-65
2022/04/10 02:35:59;;;;;;;2.00;1.48;;;;;;;;;;5042750;28;20406;-66
2022/04/10 02:38:25;;;;;;;2.93;1.73;;;;;;;;;;5041023;28;20021;-66
2022/04/10 02:40:51;;;;;;;3.55;1.90;;;;;;;;;;5042516;28;20037;-66
2022/04/10 02:43:17;;;;;;;0.95;0.95;;;;;;;;;;5044822;28;20036;-67
2022/04/10 02:45:43;;;;;;;1.38;1.25;;;;;;;;;;5044497;28;20482;-66
2022/04/10 02:48:10;;;;;;;1.83;1.38;;;;;;;;;;5044872;28;20037;-69
2022/04/10 02:50:40;;;;;;;0.85;0.85;;;;;;;;;;5041130;28;20074;-66
2022/04/10 02:53:07;;;;;;;1.30;1.20;;;2.20;94.80;;;;;;5042238;28;20060;-66
2022/04/10 02:55:33;;;;;;;1.38;1.27;;;;;;;;;;5041381;28;20047;-67
2022/04/10 02:57:59;;;;;;;4.03;2.13;;;;;;;;;;5044532;28;20094;-67
2022/04/10 03:00:25;;;;;;;1.27;1.17;;;;;;;;;;5059552;28;20090;-66
2022/04/10 03:02:52;;;;;;;1.40;1.30;;;;;;;;;;5044508;28;20037;-66
2022/04/10 03:05:18;;;;;;;1.60;1.17;;;;;;;;;;5041510;28;20048;-66
2022/04/10 03:07:43;;;;;;;2.15;1.02;;;;;;;;;;5042499;28;20033;-64
2022/04/10 03:10:10;;;;;;;3.25;1.10;;;;;;;;;;5042887;28;20120;-67
2022/04/10 03:12:36;;;;;;;2.17;1.75;;;;;;;;;;5043613;28;20445;-66
2022/04/10 03:15:02;;;;;;;1.23;1.13;;;;;;;;;;5043663;28;20036;-65
2022/04/10 03:17:27;;;;;;;3.03;1.48;;;;;;;;;;5041470;28;20037;-67
2022/04/10 03:19:53;;;;;;;1.42;1.30;;;;;;;;;;5041227;28;20390;-66
2022/04/10 03:22:20;;;;;;;16.10;1.65;;;;;;;;;;5043214;28;20024;-67
2022/04/10 03:24:46;;;;;;;3.17;1.73;;;;;;;;;;5043085;28;20053;-66
2022/04/10 03:27:11;;;;;;;1.55;1.38;;;2.00;99.40;;;;;;5043555;28;20408;-67
2022/04/10 03:29:37;;;;;;;1.30;1.08;;;;;;;;;;5042100;28;20036;-65
2022/04/10 03:32:03;;;;;;;1.83;1.20;;;1.90;95.50;;;;;;5040882;28;20059;-67
2022/04/10 03:34:29;;;;;;;1.73;1.63;;;;;;;;;;5042699;28;20482;-66
2022/04/10 03:36:55;;;;;;;1.58;1.20;;;;;;;;;;5042405;28;20522;-66
2022/04/10 03:39:22;;;;;;;0.80;0.80;;;;;;;;;;5044345;28;20044;-65
2022/04/10 03:41:48;;;;;;;1.90;1.42;;;;;;;;;;5038070;28;20489;-67
2022/04/10 03:44:14;;;;;;;1.42;1.33;;;;;;;;;;4992889;28;20523;-66
2022/04/10 03:46:40;;;;;;;2.20;1.30;;;;;;;;;;5002441;28;20026;-66
2022/04/10 03:49:07;;;;;;;1.25;1.05;;;;;;;;;;5003194;28;20054;-66
2022/04/10 03:51:33;;;;;;;3.00;1.95;;;;;;;;;;5004144;28;20034;-66
2022/04/10 03:53:59;;;;;;;2.53;1.77;;;;;;;;;;5004471;28;20072;-67
2022/04/10 03:56:25;;;;;;;2.78;1.27;;;;;;;;;;5002313;28;20104;-65
2022/04/10 03:58:51;;;;;;;0.60;0.60;;;;;;;;;;4995918;28;20030;-66
2022/04/10 04:01:17;;;;;;;1.23;1.02;;;;;;;;;;5006504;28;20033;-65
2022/04/10 04:03:43;;;;;;;3.20;1.67;;;;;;;;;;5007064;28;20399;-65
2022/04/10 04:06:09;;;;;;;1.98;0.90;;;;;;;;;;5007596;28;20022;-66
2022/04/10 04:08:35;;;;;;;2.38;2.05;;;;;;;;;;5005152;28;20038;-66
2022/04/10 04:11:01;;;;;;;5.25;1.73;;;;;;;;;;5005733;28;20099;-66
2022/04/10 04:13:27;;;;;;;1.02;0.98;;;;;;;;;;5006765;28;20029;-67
2022/04/10 04:15:53;;;;;;;1.40;1.27;;;;;;;;;;5006063;28;20076;-66
2022/04/10 04:18:19;;;;;;;3.40;1.65;;;;;;;;;;5007733;28;20038;-66
2022/04/10 04:20:45;;;;;;;2.17;1.27;;;;;;;;;;5007161;28;20032;-66
2022/04/10 04:23:11;;;;;;;3.15;1.48;;;;;;;;;;5004794;28;20038;-66
2022/04/10 04:25:37;;;;;;;3.13;1.05;;;;;;;;;;5006516;28;20026;-66
2022/04/10 04:28:03;;;;;;;1.25;1.02;;;;;;;;;;5007662;28;20547;-64
2022/04/10 04:30:29;;;;;;;4.88;2.22;;;;;;;;;;5006547;28;20026;-67
2022/04/10 04:32:56;;;;;;;2.40;1.58;;;;;;;;;;5021302;28;20048;-66
2022/04/10 04:35:23;;;;;;;1.60;1.50;;;;;;;;;;5005386;28;20036;-66
2022/04/10 04:37:49;;;;;;;0.75;0.65;;;;;;;;;;5006489;28;20026;-66
2022/04/10 04:40:15;;;;;;;4.15;1.63;;;;;;;;;;5006216;28;20026;-66
2022/04/10 04:42:42;;;;;;;2.27;1.40;;;;;;;;;;5007174;28;20127;-66
2022/04/10 04:45:09;;;;;;;1.58;1.38;;;;;;;;;;5006814;28;20556;-65
2022/04/10 04:47:36;;;;;;;1.00;0.98;;;;;;;;;;5004486;28;20080;-66
2022/04/10 04:50:02;;;;;;;1.23;1.08;;;;;;;;;;5003455;28;20038;-66
2022/04/10 04:52:28;;;;;;;2.72;1.13;;;;;;;;;;5005086;28;20038;-67
2022/04/10 04:54:54;;;;;;;1.73;1.63;;;;;;;;;;5006787;28;20054;-66
2022/04/10 04:57:20;;;;;;;1.65;1.05;;;;;;;;;;5007609;28;20117;-66
2022/04/10 04:59:46;;;;;;;2.30;1.25;;;;;;;;;;5004245;28;20100;-67
2022/04/10 05:02:12;;;;;;;1.65;1.33;;;;;;;;;;5002721;28;20502;-66
2022/04/10 05:04:38;;;;;;;1.17;0.73;;;;;;;;;;5007323;28;20108;-66
2022/04/10 05:07:05;;;;;;;1.85;1.00;;;;;;;;;;5006218;28;20590;-64
2022/04/10 05:09:31;;;;;;;2.40;1.30;;;;;;;;;;5005937;28;20712;-67
2022/04/10 05:11:57;;;;;;;1.13;1.02;;;;;;;;;;5004696;28;20092;-66
2022/04/10 05:14:23;;;;;;;3.20;1.77;;;;;;;;;;5004199;28;20053;-67
2022/04/10 05:16:49;;;;;;;1.85;1.52;;;;;;;;;;5004500;28;20022;-66
2022/04/10 05:19:15;;;;;;;0.98;0.98;;;;;;;;;;5005074;28;20026;-66
2022/04/10 05:21:41;;;;;;;2.00;1.10;;;;;;;;;;5006567;28;20459;-66
2022/04/10 05:24:07;;;;;;;1.08;1.00;;;;;;;;;;5004445;28;20018;-65
2022/04/10 05:26:33;;;;;;;2.75;0.75;;;;;;;;;;5004512;28;20115;-66
2022/04/10 05:28:59;;;;;;;1.25;1.15;;;;;;;;;;5004345;28;20050;-67
2022/04/10 05:31:25;;;;;;;0.90;0.85;;;;;;;;;;5005790;28;20650;-67
2022/04/10 05:33:51;;;;;;;5.05;1.30;;;;;;;;;;5005583;28;20097;-68
2022/04/10 05:36:17;;;;;;;2.63;1.27;;;;;;;;;;5005822;28;20038;-64
2022/04/10 05:38:45;;;;;;;2.45;1.90;;;;;;;;;;5003598;28;20045;-64
2022/04/10 05:41:12;;;;;;;2.85;1.35;;;;;;;;;;5006093;28;20503;-66
2022/04/10 05:43:38;;;;;;;2.10;0.88;;;;;;;;;;5006018;28;20372;-66
2022/04/10 05:46:04;;;;;;;1.63;1.52;;;;;;;;;;5005752;28;20057;-64
2022/04/10 05:48:31;;;;;;;3.20;0.90;;;;;;;;;;5004795;28;20034;-65
2022/04/10 05:50:57;;;;;;;1.25;1.00;;;;;;;;;;5004641;28;20041;-65
2022/04/10 05:53:27;;;;;;;7.97;2.20;;;;;;;;;;5003470;28;20053;-65
2022/04/10 05:55:53;;;;;;;5.43;2.25;;;;;;;;;;5003225;28;20523;-66
2022/04/10 05:58:19;;;;;;;2.90;1.52;;;;;;;;;;5006130;28;20072;-65
2022/04/10 06:00:45;;;;;;;2.15;1.67;;;;;;;;;;5005259;28;20505;-65
2022/04/10 06:03:11;;;;;;;1.65;1.55;;;;;;;;;;5005177;28;20218;-64
2022/04/10 06:05:37;;;;;;;1.73;1.60;;;;;;;;;;5003134;28;20037;-64
2022/04/10 06:08:03;;;;;;;3.05;2.83;;;;;;;;;;5003087;28;20030;-65
2022/04/10 06:10:29;;;;;;;4.32;2.75;;;;;;;;;;5003634;28;20026;-65
2022/04/10 06:12:55;;;;;;;1.92;1.83;;;;;;;;;;5004578;28;20461;-66
2022/04/10 06:15:21;;;;;;;3.13;1.67;;;;;;;;;;5004484;28;20018;-65
2022/04/10 06:17:48;;;;;;;3.55;2.70;;;;;;;;;;5003390;28;20487;-66
2022/04/10 06:20:14;;;;;;;7.50;2.83;;;;;;;;;;5003402;28;20026;-65
2022/04/10 06:22:40;;;;;;;4.68;2.83;;;;;;;;;;5003696;28;20045;-66
2022/04/10 06:25:06;;;;;;;2.90;2.50;;;;;;;;;;5003977;28;20022;-66
2022/04/10 06:27:32;;;;;;;2.70;2.05;;;;;;;;;;5005460;28;20399;-66
2022/04/10 06:29:58;;;;;;;2.72;2.55;;;;;;;;;;5003619;28;20029;-66
2022/04/10 06:32:24;;;;;;;2.30;2.10;;;;;;;;;;5002156;28;20070;-66
2022/04/10 06:34:50;;;;;;;2.15;2.00;;;;;;;;;;5003427;28;20033;-65
2022/04/10 06:37:15;;;;;;;2.33;2.20;;;11.80;74.80;;;;;;5003587;28;20427;-65
2022/04/10 06:39:41;;;;;;;2.13;1.92;;;;;;;;;;5003948;28;20026;-65
2022/04/10 06:42:09;;;;;;;3.28;2.53;;;;;;;;;;5001673;28;20411;-66
2022/04/10 06:44:35;;;;;;;4.13;2.03;;;;;;;;;;5000674;28;20561;-67
2022/04/10 06:47:01;;;;;;;4.35;3.85;;;;;;;;;;5000791;28;20038;-67
2022/04/10 06:49:27;;;;;;;6.07;2.40;;;;;;;;;;5000998;28;20076;-68
2022/04/10 06:51:53;;;;;;;2.85;2.28;;;;;;;;;;5002343;28;20046;-66
2022/04/10 06:54:19;;;;;;;7.00;3.28;;;;;;;;;;5003692;28;20543;-67
2022/04/10 06:56:45;;;;;;;6.88;3.22;;;;;;;;;;5002500;28;20041;-67
2022/04/10 06:59:11;;;;;;;6.70;3.40;;;;;;;;;;5002573;28;20075;-66
2022/04/10 07:01:37;;;;;;;5.28;4.78;;;;;;;;;;5001226;28;20069;-67
2022/04/10 07:04:03;;;;;;;5.50;4.03;;;;;;;;;;5003037;28;20049;-66
2022/04/10 07:06:29;;;;;;;4.45;3.17;;;;;;;;;;5002885;28;20026;-66
2022/04/10 07:08:57;;;;;;;3.42;2.38;;;;;;;;;;5002195;28;20072;-67
2022/04/10 07:11:23;;;;;;;5.15;2.92;;;;;;;;;;5000987;28;21452;-66
2022/04/10 07:13:49;;;;;;;2.95;2.50;;;;;;;;;;5001125;28;20109;-67
2022/04/10 07:16:15;;;;;;;6.53;2.17;;;;;;;;;;5003674;28;20114;-66
2022/04/10 07:18:41;;;;;;;3.53;2.83;;;;;;;;;;5003440;28;20036;-67
2022/04/10 07:21:07;;;;;;;2.90;2.47;;;;;;;;;;5004445;28;20033;-68
2022/04/10 07:23:42;;;;;;;5.17;1.47;;;;;;;;;;5001681;28;20121;-67
2022/04/10 07:26:12;;;;;;;2.13;1.83;;;;;;;;;;5003349;28;20038;-65
2022/04/10 07:28:38;;;;;;;2.03;1.58;;;;;;;;;;5003454;28;20056;-68
2022/04/10 07:31:08;;;;;;;2.93;0.80;;;;;;;;;;5036231;28;20053;-66
2022/04/10 07:33:34;;;;;;;3.92;1.40;;;22.60;52.90;;;;;;5004501;28;20072;-66
2022/04/10 07:36:00;;;;;;;4.57;1.45;;;;;;;;;;5004828;28;20029;-67
2022/04/10 07:38:26;;;;;;;3.13;1.63;;;;;;;;;;5004690;28;20123;-68
2022/04/10 07:40:52;;;;;;;1.58;1.33;;;22.20;41.20;;;;;;5007246;28;20057;-67
2022/04/10 07:43:18;;;;;;;2.30;1.60;;;;;;;;;;5007764;28;20817;-67
2022/04/10 07:48:29;;;;;;;1.98;1.42;;;;;;;;;;5008124;28;20040;-67
2022/04/10 07:50:57;;;;;;;2.08;1.42;;;;;;;;;;5006031;28;20250;-68
2022/04/10 07:53:23;;;;;;;2.55;1.17;;;;;;;;;;5006239;28;20061;-67
2022/04/10 07:55:49;;;;;;;2.05;0.88;;;;;;;;;;5004963;28;20041;-67
2022/04/10 07:58:15;;;;;;;3.22;1.20;;;;;;;;;;5008391;28;20084;-67
2022/04/10 08:00:40;;;;;;;1.80;1.30;;;25.20;40.60;;;;;;5007384;28;20506;-67
2022/04/10 08:03:07;;;;;;;2.30;1.20;;;;;;;;;;5007804;28;20026;-67
2022/04/10 08:05:34;;;;;;;1.45;0.98;;;;;;;;;;5006456;28;20104;-67
2022/04/10 08:08:00;;;;;;;2.15;1.40;;;;;;;;;;5006767;28;20064;-66
2022/04/10 08:10:26;;;;;;;1.80;1.40;;;;;;;;;;5007379;28;20061;-67
2022/04/10 08:12:51;;;;;;;3.10;2.00;;;25.60;48.30;;;;;;5007303;28;20352;-67
2022/04/10 08:15:17;;;;;;;1.47;1.10;;;26.60;35.80;;;;;;5008242;28;20284;-67
2022/04/10 08:17:43;;;;;;;2.97;1.60;;;27.00;40.70;;;;;;5005680;28;20026;-67
2022/04/10 08:20:09;;;;;;;1.13;0.93;;;;;;;;;;5005475;28;20084;-68
2022/04/10 08:22:36;;;;;;;1.95;1.20;;;;;;;;;;5007380;28;20038;-68
2022/04/10 08:25:03;;;;;;;2.65;1.10;;;;;;;;;;5008596;28;20092;-67
2022/04/10 08:27:29;;;;;;;4.45;1.00;;;;;;;;;;5008908;28;20100;-67
2022/04/10 08:29:56;;;;;;;2.15;1.45;;;;;;;;;;5008488;28;20025;-68
2022/04/10 08:32:22;;;;;;;1.20;0.55;;;;;;;;;;5005169;28;20042;-67
2022/04/10 08:34:48;;;;;;;6.90;0.90;;;;;;;;;;5001696;28;20037;-68
2022/04/10 08:37:13;;;;;;;0.43;0.30;;;27.20;30.90;;;;;;5008086;28;20025;-68
2022/04/10 08:39:39;;;;;;;1.97;0.80;;;;;;;;;;5007382;28;20505;-68
2022/04/10 08:42:07;;;;;;;1.30;0.40;;;;;;;;;;5006722;28;20053;-68
2022/04/10 08:44:33;;;;;;;1.58;0.57;;;;;;;;;;5005129;28;20949;-68
2022/04/10 08:47:00;;;;;;;1.15;0.55;;;;;;;;;;5003905;28;20042;-67
2022/04/10 08:49:26;;;;;;;1.40;0.50;;;;;;;;;;5006713;28;20534;-68
2022/04/10 08:51:53;;;;;;;0.60;0.45;;;;;;;;;;5006870;28;20076;-68
2022/04/10 08:54:22;;;;;;;1.40;0.55;;;;;;;;;;5002606;28;20026;-67
2022/04/10 08:56:50;;;;;;;2.35;0.50;;;28.70;38.70;;;;;;5006073;28;20050;-67
2022/04/10 08:59:16;;;;;;;1.05;0.52;;;28.00;25.80;;;;;;5003729;28;20022;-67
2022/04/10 09:01:42;;;;;;;;;;;;;;;;;;5006060;28;20046;-67
2022/04/10 09:04:08;;;;;;;4.10;1.35;;;29.10;41.40;;;;;;5004224;28;19909;-67
2022/04/10 09:06:38;;;;;;;1.13;0.60;;;;;;;;;;5006009;28;20046;-69
2022/04/10 09:09:11;;;;;;;1.75;0.63;;;28.20;24.70;;;;;;5007496;28;20125;-67
2022/04/10 09:11:39;;;;;;;2.00;0.73;;;;;;;;;;5004338;28;20649;-67
2022/04/10 09:14:06;;;;;;;2.05;0.85;;;;;;;;;;5005255;28;20048;-66
2022/04/10 09:16:32;;;;;;;1.70;0.75;;;;;;;;;;5004235;28;20024;-67
2022/04/10 09:19:00;;;;;;;1.40;0.80;;;;;;;;;;5005325;28;20030;-66
2022/04/10 09:21:29;;;;;;;1.83;1.00;;;27.60;26.80;;;;;;5007112;28;20297;-65
2022/04/10 09:24:03;;;;;;;2.00;0.90;;;;;;;;;;5007038;28;20032;-67
2022/04/10 09:26:47;;;;;;;5.18;0.70;;;;;;;;;;5004979;28;20026;-67
2022/04/10 09:29:14;;;;;;;0.82;0.60;;;;;;;;;;5005822;28;20030;-66
2022/04/10 09:31:40;;;;;;;;;;;;;;;;;;5006425;28;20620;-65
2022/04/10 09:34:07;;;;;;;1.92;0.55;;;;;;;;;;5006090;28;19909;-66
2022/04/10 09:36:38;;;;;;;2.28;0.98;;;;;;;;;;5005683;28;20497;-65
2022/04/10 09:39:14;;;;;;;2.13;1.15;;;;;;;;;;5006121;28;20025;-64
2022/04/10 09:41:41;;;;;;;4.43;0.70;;;;;;;;;;5020831;28;20358;-66
2022/04/10 09:44:20;;;;;;;3.53;1.08;;;27.00;26.00;;;;;;5006359;28;20050;-66
2022/04/10 09:46:56;;;;;;;1.17;0.60;;;;;;;;;;5005691;28;20025;-66
2022/04/10 09:49:22;;;;;;;4.40;1.05;;;;;;;;;;5005064;28;20037;-65
2022/04/10 09:51:58;;;;;;;3.53;0.55;;;;;;;;;;5006201;28;20034;-65
2022/04/10 09:54:25;;;;;;;1.23;0.80;;;;;;;;;;5004930;28;20092;-65
2022/04/10 09:56:51;;;;;;;1.58;0.98;;;;;;;;;;5003769;28;20042;-65
2022/04/10 09:59:18;;;;;;;1.95;1.00;;;;;;;;;;5002065;28;20037;-66
2022/04/10 10:01:44;;;;;;;2.42;1.50;;;;;;;;;;5003744;28;20495;-65
2022/04/10 10:04:12;;;;;;;5.72;1.40;;;;;;;;;;5005203;28;20077;-65
2022/04/10 10:06:38;;;;;;;1.05;0.70;;;;;;;;;;5004720;28;20100;-65
2022/04/10 10:09:07;;;;;;;1.15;0.88;;;24.70;28.30;;;;;;5003777;28;20524;-66
2022/04/10 10:11:33;;;;;;;2.70;1.27;;;;;;;;;;5002017;28;20042;-66
2022/04/10 10:13:59;;;;;;;1.35;0.57;;;;;;;;;;5002793;28;20873;-65
2022/04/10 10:16:25;;;;;;;2.78;0.95;;;25.00;28.10;;;;;;5004679;28;20030;-65
2022/04/10 10:18:51;;;;;;;1.13;0.70;;;;;;;;;;5003255;28;20045;-65
2022/04/10 10:21:17;;;;;;;2.88;0.77;;;;;;;;;;4999970;28;20022;-68
2022/04/10 10:23:46;;;;;;;1.20;0.80;;;;;;;;;;5033671;28;20513;-66
2022/04/10 10:26:39;;;;;;;2.45;0.77;;;;;;;;;;5003106;28;20121;-66
2022/04/10 10:29:10;;;;;;;1.65;1.10;;;;;;;;;;5025272;28;20645;-66
2022/04/10 10:31:37;;;;;;;2.80;1.23;;;;;;;;;;5025076;28;20240;-65
2022/04/10 10:34:05;;;;;;;2.20;0.88;;;;;;;;;;5025759;28;20064;-65
2022/04/10 10:36:31;;;;;;;1.38;0.88;;;;;;;;;;5026135;28;20115;-65
2022/04/10 10:38:58;;;;;;;7.97;1.03;;;23.00;29.80;;;;;;5025593;28;20914;-66
2022/04/10 10:41:24;;;;;;;1.20;0.77;;;;;;;;;;5023405;28;20115;-69
2022/04/10 10:43:50;;;;;;;3.42;1.27;;;;;;;;;;5026658;28;20053;-69
2022/04/10 10:46:23;;;;;;;5.77;1.30;;;;;;;;;;5029633;28;20041;-71
2022/04/10 10:48:50;;;;;;;2.80;1.73;;;;;;;;;;5029529;28;20512;-68
2022/04/10 10:51:18;;;;;;;2.40;1.35;;;;;;;;;;5029753;28;20035;-70
2022/04/10 10:53:48;;;;;;;3.28;1.42;;;;;;;;;;5009253;28;20048;-70
2022/04/10 10:56:19;;;;;;;9.57;1.10;;;23.20;28.30;;;;;;5025788;28;20041;-70
2022/04/10 10:58:45;;;;;;;1.08;0.93;;;;;;;;;;5026033;28;20686;-64
2022/04/10 11:01:26;;;;;;;1.40;1.17;;;;;;;;;;5027984;28;20458;-75
2022/04/10 11:04:02;;;;;;;2.17;1.25;;;;;;;;;;5028405;28;20052;-69
2022/04/10 11:06:33;;;;;;;2.22;1.50;;;;;;;;;;5009841;28;20037;-67
2022/04/10 11:09:18;;;;;;;1.77;1.27;;;;;;;;;;5004043;28;20887;-67
2022/04/10 11:11:44;;;;;;;3.33;0.93;;;;;;;;;;5003390;28;20567;-66
2022/04/10 11:14:31;;;;;;;2.40;1.40;;;22.20;29.80;;;;;;5002452;28;20030;-66
2022/04/10 11:17:09;;;;;;;5.88;1.70;;;;;;;;;;4999798;28;20026;-67
2022/04/10 11:19:36;;;;;;;1.92;1.10;;;;;;;;;;5001406;28;20046;-67
2022/04/10 11:22:03;;;;;;;2.58;1.65;;;;;;;;;;5002989;28;20100;-66
2022/04/10 11:24:29;;;;;;;2.45;1.23;;;;;;;;;;5003291;28;20112;-66
2022/04/10 11:26:55;;;;;;;1.58;1.17;;;20.30;53.20;;;;;;5018974;28;20034;-67
2022/04/10 11:29:21;;;;;;;2.67;0.93;;;;;;;;;;5016292;28;20039;-66
2022/04/10 11:31:52;;;;;;;1.23;0.98;;;;;;;;;;5001969;28;20033;-67
2022/04/10 11:34:22;;;;;;;3.03;1.77;;;;;;;;;;5002666;28;20040;-67
2022/04/10 11:36:50;;;;;;;2.88;1.52;;;;;;;;;;5003578;28;20065;-66
2022/04/10 11:39:16;;;;;;;3.67;2.10;;;20.50;53.50;;;;;;5003042;28;20045;-67
2022/04/10 11:41:42;;;;;;;2.30;1.00;;;;;;;;;;5000497;28;20037;-66
2022/04/10 11:44:09;;;;;;;1.65;1.15;;;;;;;;;;5001835;28;20703;-67
2022/04/10 11:46:35;;;;;;;2.13;0.90;;;;;;;;;;5004538;28;20078;-66
2022/04/10 11:49:02;;;;;;;4.63;1.40;;;;;;;;;;5002315;28;20026;-67
2022/04/10 11:51:28;;;;;;;1.77;1.38;;;;;;;;;;5003548;28;20066;-67
2022/04/10 11:54:00;;;;;;;3.58;1.58;;;;;;;;;;5001675;28;20109;-68
2022/04/10 11:56:26;;;;;;;2.38;1.88;;;;;;;;;;5001640;28;20048;-66
2022/04/10 11:58:52;;;;;;;2.33;1.25;;;;;;;;;;5001806;28;20095;-66
2022/04/10 12:01:19;;;;;;;3.97;1.45;;;;;;;;;;5034441;28;20029;-66
2022/04/10 12:03:49;;;;;;;1.65;1.45;;;;;;;;;;5034966;28;20042;-68
2022/04/10 12:06:21;;;;;;;1.70;0.77;;;;;;;;;;5004561;28;20081;-67
2022/04/10 12:08:51;;;;;;;1.65;1.15;;;;;;;;;;4996122;28;20673;-66
2022/04/10 12:11:17;;;;;;;4.38;1.35;;;;;;;;;;5001717;28;20114;-65
2022/04/10 12:13:43;;;;;;;1.95;1.17;;;;;;;;;;4998986;28;20053;-67
2022/04/10 12:16:22;;;;;;;2.05;1.42;;;;;;;;;;5004075;28;20053;-66
2022/04/10 12:18:55;;;;;;;1.42;1.15;;;;;;;;;;5002634;28;20042;-66
2022/04/10 12:21:22;;;;;;;2.80;1.90;;;;;;;;;;5019228;28;20034;-68
2022/04/10 12:24:04;;;;;;;3.97;1.33;;;;;;;;;;5004556;28;20030;-67
2022/04/10 12:26:33;;;;;;;1.48;1.15;;;17.60;39.30;;;;;;5004739;28;20033;-66
2022/04/10 12:29:00;;;;;;;1.67;1.35;;;;;;;;;;5004132;28;20069;-66
2022/04/10 12:31:26;;;;;;;2.92;1.40;;;;;;;;;;5006445;28;20079;-67
2022/04/10 12:33:52;;;;;;;1.45;1.35;;;;;;;;;;5005445;28;20032;-66
2022/04/10 12:36:19;;;;;;;2.58;1.38;;;;;;;;;;5007408;28;20120;-66
2022/04/10 12:38:45;;;;;;;2.50;1.25;;;;;;;;;;5005676;28;20021;-66
2022/04/10 12:41:11;;;;;;;2.25;1.63;;;17.50;57.70;;;;;;5004299;28;20597;-66
2022/04/10 12:43:37;;;;;;;2.30;1.35;;;;;;;;;;5006094;28;20030;-67
2022/04/10 12:46:09;;;;;;;3.40;2.17;;;;;;;;;;5007388;28;20025;-66
2022/04/10 12:48:37;;;;;;;5.40;1.20;;;;;;;;;;5005624;28;20037;-66
2022/04/10 12:51:07;;;;;;;2.22;1.30;;;;;;;;;;5003608;28;20527;-67
2022/04/10 12:53:33;;;;;;;2.13;1.27;;;;;;;;;;5004101;28;20068;-67
2022/04/10 12:55:59;;;;;;;3.00;1.65;;;;;;;;;;5003272;28;20064;-66
2022/04/10 12:58:29;;;;;;;1.40;1.15;;;;;;;;;;5005665;28;20033;-66
2022/04/10 13:00:56;;;;;;;1.80;1.45;;;;;;;;;;5005673;28;20409;-67
2022/04/10 13:03:24;;;;;;;4.05;1.58;;;16.50;40.00;;;;;;5004904;28;20099;-66
2022/04/10 13:06:02;;;;;;;2.05;1.55;;;16.50;41.40;;;;;;5002774;28;20040;-67
2022/04/10 13:08:39;;;;;;;5.05;1.50;;;;;;;;;;5004671;28;20032;-66
2022/04/10 13:11:09;;;;;;;2.83;1.38;;;;;;;;;;5002977;28;20037;-66
2022/04/10 13:13:54;;;;;;;1.48;1.08;;;;;;;;;;5005423;28;20038;-67
2022/04/10 13:16:26;;;;;;;1.73;1.02;;;;;;;;;;5005476;28;20021;-66
2022/04/10 13:18:52;;;;;;;4.47;1.08;;;;;;;;;;5005258;28;20033;-67
2022/04/10 13:21:18;;;;;;;4.15;1.75;;;16.30;64.30;;;;;;5005021;28;20033;-66
2022/04/10 13:23:43;;;;;;;1.73;1.40;;;16.40;62.70;;;;;;5004149;28;20039;-66
2022/04/10 13:26:09;;;;;;;2.88;1.65;;;;;;;;;;5003377;28;20033;-66
2022/04/10 13:28:35;;;;;;;3.55;1.55;;;;;;;;;;5005227;28;20025;-66
2022/04/10 13:31:02;;;;;;;3.75;1.23;;;;;;;;;;5006115;28;20030;-66
2022/04/10 13:33:27;;;;;;;1.80;1.25;;;16.10;57.40;;;;;;5005021;28;20030;-66
2022/04/10 13:35:53;;;;;;;1.52;1.08;;;;;;;;;;5003672;28;20030;-65
2022/04/10 13:38:19;;;;;;;1.48;1.00;;;;;;;;;;5004382;28;20530;-65
2022/04/10 13:40:45;;;;;;;2.10;1.83;;;15.70;51.20;;;;;;5004626;28;20026;-65
2022/04/10 13:43:11;;;;;;;4.68;1.52;;;;;;;;;;5006178;28;20127;-65
2022/04/10 13:45:37;;;;;;;2.00;1.10;;;;;;;;;;5006006;28;20030;-66
2022/04/10 13:48:03;;;;;;;1.75;0.85;;;;;;;;;;5004092;28;20561;-66
2022/04/10 13:50:29;;;;;;;1.80;1.10;;;;;;;;;;5004984;28;20045;-65
2022/04/10 13:52:55;;;;;;;2.67;1.58;;;;;;;;;;5003944;28;20120;-67
2022/04/10 13:55:21;;;;;;;1.15;0.95;;;;;;;;;;5006014;28;20165;-65
2022/04/10 13:57:47;;;;;;;2.50;1.23;;;;;;;;;;5004689;28;20026;-66
2022/04/10 14:00:14;;;;;;;3.35;1.20;;;;;;;;;;5005349;28;20612;-65
2022/04/10 14:02:40;;;;;;;1.88;1.13;;;;;;;;;;5003637;28;20046;-65
2022/04/10 14:05:07;;;;;;;1.73;1.20;;;;;;;;;;5006410;28;20758;-64
2022/04/10 14:07:34;;;;;;;1.25;0.85;;;;;;;;;;5005516;28;20534;-65
2022/04/10 14:10:00;;;;;;;1.80;1.40;;;;;;;;;;5006106;28;20030;-65
2022/04/10 14:12:26;;;;;;;2.13;0.90;;;15.10;52.10;;;;;;5003914;28;20033;-66
2022/04/10 14:14:52;;;;;;;1.55;1.17;;;;;;;;;;5003540;28;20616;-65
2022/04/10 14:17:18;;;;;;;4.15;1.40;;;;;;;;;;5004865;28;20123;-66
2022/04/10 14:19:44;;;;;;;3.60;1.50;;;;;;;;;;5003139;28;20018;-66
2022/04/10 14:22:10;;;;;;;12.32;2.58;;;;;;;;;;5004834;28;20447;-66
2022/04/10 14:24:36;;;;;;;3.25;0.90;;;;;;;;;;5003288;28;20605;-66
2022/04/10 14:27:02;;;;;;;4.80;1.13;;;;;;;;;;4999040;28;20028;-66
2022/04/10 14:29:28;;;;;;;1.88;1.48;;;;;;;;;;5006101;28;20037;-65
2022/04/10 14:31:54;;;;;;;1.08;0.88;;;;;;;;;;5006237;28;20034;-67
2022/04/10 14:34:20;;;;;;;2.55;1.10;;;;;;;;;;5006211;28;20057;-66